sensor_id;sensor_type;location;lat;lon;timestamp;P1;durP1;ratioP1;P2;durP2;ratioP2
72974;SDS011;61166;54.228;37.632;2023-08-08T00:00:46;499.02;;;172.07;;
72974;SDS011;61166;54.228;37.632;2023-08-08T00:03:13;497.63;;;169.45;;
72974;SDS011;61166;54.228;37.632;2023-08-08T00:05:40;494.50;;;167.23;;
72974;SDS011;61166;54.228;37.632;2023-08-08T00:08:06;493.02;;;167.40;;
72974;SDS011;61166;54.228;37.632;2023-08-08T00:10:33;508.13;;;175.20;;
72974;SDS011;61166;54.228;37.632;2023-08-08T00:12:59;510.40;;;172.95;;
72974;SDS011;61166;54.228;37.632;2023-08-08T00:15:26;516.13;;;177.48;;
72974;SDS011;61166;54.228;37.632;2023-08-08T00:17:52;503.47;;;171.20;;
72974;SDS011;61166;54.228;37.632;2023-08-08T00:20:19;508.42;;;174.50;;
72974;SDS011;61166;54.228;37.632;2023-08-08T00:22:45;509.77;;;174.32;;
72974;SDS011;61166;54.228;37.632;2023-08-08T00:25:12;506.08;;;173.25;;
72974;SDS011;61166;54.228;37.632;2023-08-08T00:27:38;506.15;;;172.77;;
72974;SDS011;61166;54.228;37.632;2023-08-08T00:30:05;510.60;;;173.60;;
72974;SDS011;61166;54.228;37.632;2023-08-08T00:32:31;510.35;;;173.73;;
72974;SDS011;61166;54.228;37.632;2023-08-08T00:34:58;502.83;;;171.40;;
72974;SDS011;61166;54.228;37.632;2023-08-08T00:37:24;498.42;;;169.13;;
72974;SDS011;61166;54.228;37.632;2023-08-08T00:39:51;501.95;;;171.98;;
72974;SDS011;61166;54.228;37.632;2023-08-08T00:42:17;501.80;;;170.07;;
72974;SDS011;61166;54.228;37.632;2023-08-08T00:44:43;494.42;;;168.43;;
72974;SDS011;61166;54.228;37.632;2023-08-08T00:47:10;485.67;;;164.63;;
72974;SDS011;61166;54.228;37.632;2023-08-08T00:49:37;477.15;;;160.18;;
72974;SDS011;61166;54.228;37.632;2023-08-08T00:52:04;479.92;;;162.27;;
72974;SDS011;61166;54.228;37.632;2023-08-08T00:54:33;470.67;;;157.53;;
72974;SDS011;61166;54.228;37.632;2023-08-08T00:56:59;468.13;;;157.25;;
72974;SDS011;61166;54.228;37.632;2023-08-08T00:59:26;465.92;;;156.00;;
72974;SDS011;61166;54.228;37.632;2023-08-08T01:01:53;463.05;;;156.52;;
72974;SDS011;61166;54.228;37.632;2023-08-08T01:04:19;464.92;;;156.95;;
72974;SDS011;61166;54.228;37.632;2023-08-08T01:06:50;462.57;;;156.10;;
72974;SDS011;61166;54.228;37.632;2023-08-08T01:09:24;458.83;;;154.73;;
72974;SDS011;61166;54.228;37.632;2023-08-08T01:11:54;460.60;;;156.20;;
72974;SDS011;61166;54.228;37.632;2023-08-08T01:14:21;455.70;;;154.02;;
72974;SDS011;61166;54.228;37.632;2023-08-08T01:16:50;455.50;;;154.68;;
72974;SDS011;61166;54.228;37.632;2023-08-08T01:19:20;452.07;;;152.23;;
72974;SDS011;61166;54.228;37.632;2023-08-08T01:21:47;453.10;;;151.90;;
72974;SDS011;61166;54.228;37.632;2023-08-08T01:24:21;455.30;;;154.23;;
72974;SDS011;61166;54.228;37.632;2023-08-08T01:26:48;453.25;;;153.48;;
72974;SDS011;61166;54.228;37.632;2023-08-08T01:29:14;453.85;;;152.35;;
72974;SDS011;61166;54.228;37.632;2023-08-08T01:31:41;451.17;;;152.30;;
72974;SDS011;61166;54.228;37.632;2023-08-08T01:34:07;454.70;;;154.20;;
72974;SDS011;61166;54.228;37.632;2023-08-08T01:39:20;457.48;;;155.25;;
72974;SDS011;61166;54.228;37.632;2023-08-08T01:41:48;453.80;;;153.52;;
72974;SDS011;61166;54.228;37.632;2023-08-08T01:44:16;451.77;;;153.03;;
72974;SDS011;61166;54.228;37.632;2023-08-08T01:46:43;447.73;;;150.43;;
72974;SDS011;61166;54.228;37.632;2023-08-08T01:49:09;440.77;;;150.23;;
72974;SDS011;61166;54.228;37.632;2023-08-08T01:51:36;435.27;;;148.43;;
72974;SDS011;61166;54.228;37.632;2023-08-08T01:54:02;430.20;;;147.73;;
72974;SDS011;61166;54.228;37.632;2023-08-08T01:56:29;416.30;;;144.67;;
72974;SDS011;61166;54.228;37.632;2023-08-08T01:58:56;401.02;;;139.90;;
72974;SDS011;61166;54.228;37.632;2023-08-08T02:01:23;390.83;;;139.10;;
72974;SDS011;61166;54.228;37.632;2023-08-08T02:03:50;394.85;;;138.80;;
72974;SDS011;61166;54.228;37.632;2023-08-08T02:06:16;397.30;;;139.95;;
72974;SDS011;61166;54.228;37.632;2023-08-08T02:08:44;403.23;;;141.57;;
72974;SDS011;61166;54.228;37.632;2023-08-08T02:11:11;401.55;;;140.95;;
72974;SDS011;61166;54.228;37.632;2023-08-08T02:13:37;410.15;;;142.45;;
72974;SDS011;61166;54.228;37.632;2023-08-08T02:16:04;408.98;;;142.65;;
72974;SDS011;61166;54.228;37.632;2023-08-08T02:18:30;415.25;;;144.65;;
72974;SDS011;61166;54.228;37.632;2023-08-08T02:20:57;419.77;;;144.60;;
72974;SDS011;61166;54.228;37.632;2023-08-08T02:23:23;409.63;;;142.45;;
72974;SDS011;61166;54.228;37.632;2023-08-08T02:25:49;410.30;;;142.90;;
72974;SDS011;61166;54.228;37.632;2023-08-08T02:28:16;402.67;;;141.57;;
72974;SDS011;61166;54.228;37.632;2023-08-08T02:30:42;396.52;;;141.10;;
72974;SDS011;61166;54.228;37.632;2023-08-08T02:33:09;404.33;;;142.23;;
72974;SDS011;61166;54.228;37.632;2023-08-08T02:35:36;404.67;;;141.70;;
72974;SDS011;61166;54.228;37.632;2023-08-08T02:38:03;402.10;;;142.25;;
72974;SDS011;61166;54.228;37.632;2023-08-08T02:40:29;404.98;;;141.88;;
72974;SDS011;61166;54.228;37.632;2023-08-08T02:42:55;408.27;;;142.93;;
72974;SDS011;61166;54.228;37.632;2023-08-08T02:45:22;412.53;;;144.23;;
72974;SDS011;61166;54.228;37.632;2023-08-08T02:47:48;413.52;;;143.90;;
72974;SDS011;61166;54.228;37.632;2023-08-08T02:50:15;419.20;;;145.45;;
72974;SDS011;61166;54.228;37.632;2023-08-08T02:52:42;420.92;;;144.70;;
72974;SDS011;61166;54.228;37.632;2023-08-08T02:55:08;425.23;;;146.88;;
72974;SDS011;61166;54.228;37.632;2023-08-08T02:57:35;426.30;;;145.83;;
72974;SDS011;61166;54.228;37.632;2023-08-08T03:00:01;430.60;;;147.00;;
72974;SDS011;61166;54.228;37.632;2023-08-08T03:02:28;437.05;;;148.88;;
72974;SDS011;61166;54.228;37.632;2023-08-08T03:04:54;449.52;;;152.57;;
72974;SDS011;61166;54.228;37.632;2023-08-08T03:07:21;444.85;;;150.35;;
72974;SDS011;61166;54.228;37.632;2023-08-08T03:09:47;425.60;;;145.90;;
72974;SDS011;61166;54.228;37.632;2023-08-08T03:12:14;409.45;;;142.38;;
72974;SDS011;61166;54.228;37.632;2023-08-08T03:14:40;400.13;;;141.27;;
72974;SDS011;61166;54.228;37.632;2023-08-08T03:17:07;388.73;;;138.10;;
72974;SDS011;61166;54.228;37.632;2023-08-08T03:19:33;376.98;;;137.02;;
72974;SDS011;61166;54.228;37.632;2023-08-08T03:22:00;388.93;;;138.87;;
72974;SDS011;61166;54.228;37.632;2023-08-08T03:24:27;387.00;;;138.90;;
72974;SDS011;61166;54.228;37.632;2023-08-08T03:26:53;385.10;;;138.95;;
72974;SDS011;61166;54.228;37.632;2023-08-08T03:29:20;378.00;;;137.57;;
72974;SDS011;61166;54.228;37.632;2023-08-08T03:31:46;381.75;;;138.85;;
72974;SDS011;61166;54.228;37.632;2023-08-08T03:34:13;371.63;;;137.57;;
72974;SDS011;61166;54.228;37.632;2023-08-08T03:36:40;364.88;;;136.45;;
72974;SDS011;61166;54.228;37.632;2023-08-08T03:39:08;369.05;;;137.73;;
72974;SDS011;61166;54.228;37.632;2023-08-08T03:41:35;346.00;;;131.13;;
72974;SDS011;61166;54.228;37.632;2023-08-08T03:44:01;323.00;;;128.27;;
72974;SDS011;61166;54.228;37.632;2023-08-08T03:46:28;311.80;;;125.67;;
72974;SDS011;61166;54.228;37.632;2023-08-08T03:48:54;302.42;;;125.47;;
72974;SDS011;61166;54.228;37.632;2023-08-08T03:51:21;290.50;;;121.70;;
72974;SDS011;61166;54.228;37.632;2023-08-08T03:53:48;276.38;;;118.22;;
72974;SDS011;61166;54.228;37.632;2023-08-08T03:56:14;252.05;;;111.82;;
72974;SDS011;61166;54.228;37.632;2023-08-08T03:58:41;252.80;;;115.20;;
72974;SDS011;61166;54.228;37.632;2023-08-08T04:01:07;262.25;;;117.47;;
72974;SDS011;61166;54.228;37.632;2023-08-08T04:03:34;256.92;;;118.22;;
72974;SDS011;61166;54.228;37.632;2023-08-08T04:06:00;256.55;;;116.32;;
72974;SDS011;61166;54.228;37.632;2023-08-08T04:08:27;272.75;;;121.18;;
72974;SDS011;61166;54.228;37.632;2023-08-08T04:10:53;258.97;;;119.17;;
72974;SDS011;61166;54.228;37.632;2023-08-08T04:13:20;234.93;;;109.82;;
72974;SDS011;61166;54.228;37.632;2023-08-08T04:15:46;212.90;;;106.55;;
72974;SDS011;61166;54.228;37.632;2023-08-08T04:18:13;208.68;;;104.30;;
72974;SDS011;61166;54.228;37.632;2023-08-08T04:20:39;209.68;;;105.20;;
72974;SDS011;61166;54.228;37.632;2023-08-08T04:23:06;204.33;;;103.97;;
72974;SDS011;61166;54.228;37.632;2023-08-08T04:25:32;211.52;;;104.43;;
72974;SDS011;61166;54.228;37.632;2023-08-08T04:27:59;206.18;;;104.50;;
72974;SDS011;61166;54.228;37.632;2023-08-08T04:30:25;213.98;;;105.25;;
72974;SDS011;61166;54.228;37.632;2023-08-08T04:32:52;218.82;;;106.47;;
72974;SDS011;61166;54.228;37.632;2023-08-08T04:35:18;227.87;;;108.27;;
72974;SDS011;61166;54.228;37.632;2023-08-08T04:37:45;227.07;;;108.20;;
72974;SDS011;61166;54.228;37.632;2023-08-08T04:40:11;231.63;;;107.97;;
72974;SDS011;61166;54.228;37.632;2023-08-08T04:42:38;221.98;;;106.13;;
72974;SDS011;61166;54.228;37.632;2023-08-08T04:45:04;211.35;;;103.18;;
72974;SDS011;61166;54.228;37.632;2023-08-08T04:47:31;221.20;;;105.23;;
72974;SDS011;61166;54.228;37.632;2023-08-08T04:49:58;227.25;;;105.68;;
72974;SDS011;61166;54.228;37.632;2023-08-08T04:52:25;229.80;;;107.82;;
72974;SDS011;61166;54.228;37.632;2023-08-08T04:54:51;232.93;;;108.38;;
72974;SDS011;61166;54.228;37.632;2023-08-08T04:57:17;231.75;;;107.60;;
72974;SDS011;61166;54.228;37.632;2023-08-08T04:59:44;229.33;;;107.07;;
72974;SDS011;61166;54.228;37.632;2023-08-08T05:02:10;232.82;;;107.40;;
72974;SDS011;61166;54.228;37.632;2023-08-08T05:04:37;232.10;;;108.38;;
72974;SDS011;61166;54.228;37.632;2023-08-08T05:07:03;235.82;;;107.75;;
72974;SDS011;61166;54.228;37.632;2023-08-08T05:09:30;241.05;;;108.93;;
72974;SDS011;61166;54.228;37.632;2023-08-08T05:11:57;231.80;;;106.93;;
72974;SDS011;61166;54.228;37.632;2023-08-08T05:14:24;238.15;;;109.00;;
72974;SDS011;61166;54.228;37.632;2023-08-08T05:16:50;241.57;;;110.43;;
72974;SDS011;61166;54.228;37.632;2023-08-08T05:19:17;227.52;;;107.30;;
72974;SDS011;61166;54.228;37.632;2023-08-08T05:21:43;203.80;;;101.60;;
72974;SDS011;61166;54.228;37.632;2023-08-08T05:24:10;202.93;;;102.53;;
72974;SDS011;61166;54.228;37.632;2023-08-08T05:26:36;191.43;;;98.70;;
72974;SDS011;61166;54.228;37.632;2023-08-08T05:29:03;183.18;;;97.63;;
72974;SDS011;61166;54.228;37.632;2023-08-08T05:31:29;160.32;;;89.78;;
72974;SDS011;61166;54.228;37.632;2023-08-08T05:33:56;157.73;;;88.85;;
72974;SDS011;61166;54.228;37.632;2023-08-08T05:36:22;154.67;;;86.77;;
72974;SDS011;61166;54.228;37.632;2023-08-08T05:38:49;151.25;;;87.07;;
72974;SDS011;61166;54.228;37.632;2023-08-08T05:41:15;171.63;;;92.97;;
72974;SDS011;61166;54.228;37.632;2023-08-08T05:43:42;170.90;;;92.90;;
72974;SDS011;61166;54.228;37.632;2023-08-08T05:46:08;173.27;;;93.13;;
72974;SDS011;61166;54.228;37.632;2023-08-08T05:48:35;183.73;;;95.23;;
72974;SDS011;61166;54.228;37.632;2023-08-08T05:51:01;186.68;;;95.70;;
72974;SDS011;61166;54.228;37.632;2023-08-08T05:53:28;217.43;;;105.15;;
72974;SDS011;61166;54.228;37.632;2023-08-08T05:55:55;214.50;;;103.65;;
72974;SDS011;61166;54.228;37.632;2023-08-08T05:58:21;230.48;;;107.03;;
72974;SDS011;61166;54.228;37.632;2023-08-08T06:00:48;238.03;;;109.37;;
72974;SDS011;61166;54.228;37.632;2023-08-08T06:03:14;236.35;;;108.47;;
72974;SDS011;61166;54.228;37.632;2023-08-08T06:05:41;227.77;;;107.57;;
72974;SDS011;61166;54.228;37.632;2023-08-08T06:08:07;225.07;;;107.10;;
72974;SDS011;61166;54.228;37.632;2023-08-08T06:10:34;242.80;;;109.30;;
72974;SDS011;61166;54.228;37.632;2023-08-08T06:13:00;233.33;;;108.20;;
72974;SDS011;61166;54.228;37.632;2023-08-08T06:15:27;248.85;;;111.32;;
72974;SDS011;61166;54.228;37.632;2023-08-08T06:17:53;246.75;;;111.07;;
72974;SDS011;61166;54.228;37.632;2023-08-08T06:20:20;257.73;;;113.93;;
72974;SDS011;61166;54.228;37.632;2023-08-08T06:22:46;227.60;;;107.05;;
72974;SDS011;61166;54.228;37.632;2023-08-08T06:25:13;241.27;;;108.63;;
72974;SDS011;61166;54.228;37.632;2023-08-08T06:27:39;243.20;;;108.00;;
72974;SDS011;61166;54.228;37.632;2023-08-08T06:30:06;272.52;;;116.57;;
72974;SDS011;61166;54.228;37.632;2023-08-08T06:32:33;251.23;;;110.57;;
72974;SDS011;61166;54.228;37.632;2023-08-08T06:34:59;255.50;;;112.38;;
72974;SDS011;61166;54.228;37.632;2023-08-08T06:37:26;233.90;;;106.00;;
72974;SDS011;61166;54.228;37.632;2023-08-08T06:39:53;243.40;;;107.32;;
72974;SDS011;61166;54.228;37.632;2023-08-08T06:42:19;227.25;;;106.40;;
72974;SDS011;61166;54.228;37.632;2023-08-08T06:44:46;243.02;;;109.20;;
72974;SDS011;61166;54.228;37.632;2023-08-08T06:47:12;221.48;;;104.90;;
72974;SDS011;61166;54.228;37.632;2023-08-08T06:49:39;230.63;;;105.10;;
72974;SDS011;61166;54.228;37.632;2023-08-08T06:52:06;228.18;;;105.93;;
72974;SDS011;61166;54.228;37.632;2023-08-08T06:54:33;215.30;;;102.78;;
72974;SDS011;61166;54.228;37.632;2023-08-08T06:57:00;202.88;;;99.47;;
72974;SDS011;61166;54.228;37.632;2023-08-08T06:59:27;204.77;;;98.97;;
72974;SDS011;61166;54.228;37.632;2023-08-08T07:01:54;192.47;;;96.00;;
72974;SDS011;61166;54.228;37.632;2023-08-08T07:04:20;179.32;;;94.32;;
72974;SDS011;61166;54.228;37.632;2023-08-08T07:06:47;179.38;;;93.75;;
72974;SDS011;61166;54.228;37.632;2023-08-08T07:09:14;181.45;;;94.35;;
72974;SDS011;61166;54.228;37.632;2023-08-08T07:11:40;178.65;;;93.43;;
72974;SDS011;61166;54.228;37.632;2023-08-08T07:14:07;175.13;;;92.67;;
72974;SDS011;61166;54.228;37.632;2023-08-08T07:16:34;171.52;;;90.65;;
72974;SDS011;61166;54.228;37.632;2023-08-08T07:19:00;170.85;;;91.57;;
72974;SDS011;61166;54.228;37.632;2023-08-08T07:21:27;175.88;;;91.88;;
72974;SDS011;61166;54.228;37.632;2023-08-08T07:23:53;172.35;;;90.63;;
72974;SDS011;61166;54.228;37.632;2023-08-08T07:26:20;178.53;;;92.70;;
72974;SDS011;61166;54.228;37.632;2023-08-08T07:28:46;169.68;;;90.40;;
72974;SDS011;61166;54.228;37.632;2023-08-08T07:31:13;174.18;;;92.15;;
72974;SDS011;61166;54.228;37.632;2023-08-08T07:33:40;157.40;;;88.13;;
72974;SDS011;61166;54.228;37.632;2023-08-08T07:36:06;154.25;;;86.90;;
72974;SDS011;61166;54.228;37.632;2023-08-08T07:38:33;159.30;;;87.73;;
72974;SDS011;61166;54.228;37.632;2023-08-08T07:40:59;157.23;;;88.43;;
72974;SDS011;61166;54.228;37.632;2023-08-08T07:43:26;146.40;;;85.68;;
72974;SDS011;61166;54.228;37.632;2023-08-08T07:45:53;143.43;;;84.88;;
72974;SDS011;61166;54.228;37.632;2023-08-08T07:48:19;127.32;;;80.13;;
72974;SDS011;61166;54.228;37.632;2023-08-08T07:50:46;117.10;;;74.17;;
72974;SDS011;61166;54.228;37.632;2023-08-08T07:53:13;121.72;;;76.30;;
72974;SDS011;61166;54.228;37.632;2023-08-08T07:55:40;120.22;;;76.22;;
72974;SDS011;61166;54.228;37.632;2023-08-08T07:58:06;106.30;;;71.60;;
72974;SDS011;61166;54.228;37.632;2023-08-08T08:00:33;109.82;;;71.47;;
72974;SDS011;61166;54.228;37.632;2023-08-08T08:02:59;105.23;;;70.07;;
72974;SDS011;61166;54.228;37.632;2023-08-08T08:05:26;100.07;;;68.20;;
72974;SDS011;61166;54.228;37.632;2023-08-08T08:07:53;88.57;;;65.20;;
72974;SDS011;61166;54.228;37.632;2023-08-08T08:10:19;80.53;;;59.65;;
72974;SDS011;61166;54.228;37.632;2023-08-08T08:12:46;83.13;;;59.55;;
72974;SDS011;61166;54.228;37.632;2023-08-08T08:15:13;74.93;;;57.83;;
72974;SDS011;61166;54.228;37.632;2023-08-08T08:17:39;75.35;;;58.33;;
72974;SDS011;61166;54.228;37.632;2023-08-08T08:20:06;79.57;;;60.92;;
72974;SDS011;61166;54.228;37.632;2023-08-08T08:22:33;72.72;;;54.97;;
72974;SDS011;61166;54.228;37.632;2023-08-08T08:24:59;62.92;;;49.92;;
72974;SDS011;61166;54.228;37.632;2023-08-08T08:27:26;47.83;;;42.37;;
72974;SDS011;61166;54.228;37.632;2023-08-08T08:29:52;54.25;;;44.88;;
72974;SDS011;61166;54.228;37.632;2023-08-08T08:32:19;49.97;;;40.97;;
72974;SDS011;61166;54.228;37.632;2023-08-08T08:34:45;42.13;;;33.67;;
72974;SDS011;61166;54.228;37.632;2023-08-08T08:37:12;37.13;;;31.60;;
72974;SDS011;61166;54.228;37.632;2023-08-08T08:39:39;45.97;;;32.33;;
72974;SDS011;61166;54.228;37.632;2023-08-08T08:42:05;45.75;;;35.13;;
72974;SDS011;61166;54.228;37.632;2023-08-08T08:44:33;46.25;;;41.22;;
72974;SDS011;61166;54.228;37.632;2023-08-08T08:47:02;51.65;;;44.88;;
72974;SDS011;61166;54.228;37.632;2023-08-08T08:49:31;53.85;;;47.03;;
72974;SDS011;61166;54.228;37.632;2023-08-08T08:51:58;65.97;;;52.93;;
72974;SDS011;61166;54.228;37.632;2023-08-08T08:54:26;78.05;;;59.53;;
72974;SDS011;61166;54.228;37.632;2023-08-08T08:56:53;81.88;;;61.00;;
72974;SDS011;61166;54.228;37.632;2023-08-08T08:59:20;80.30;;;59.67;;
72974;SDS011;61166;54.228;37.632;2023-08-08T09:01:46;87.55;;;61.13;;
72974;SDS011;61166;54.228;37.632;2023-08-08T09:04:14;88.90;;;62.90;;
72974;SDS011;61166;54.228;37.632;2023-08-08T09:06:41;77.90;;;59.78;;
72974;SDS011;61166;54.228;37.632;2023-08-08T09:09:08;74.10;;;59.00;;
72974;SDS011;61166;54.228;37.632;2023-08-08T09:11:43;70.40;;;56.05;;
72974;SDS011;61166;54.228;37.632;2023-08-08T09:14:24;70.40;;;55.22;;
72974;SDS011;61166;54.228;37.632;2023-08-08T09:16:51;62.27;;;51.23;;
72974;SDS011;61166;54.228;37.632;2023-08-08T09:19:18;62.95;;;50.30;;
72974;SDS011;61166;54.228;37.632;2023-08-08T09:21:48;58.85;;;50.10;;
72974;SDS011;61166;54.228;37.632;2023-08-08T09:24:15;63.35;;;52.10;;
72974;SDS011;61166;54.228;37.632;2023-08-08T09:26:43;62.70;;;51.28;;
72974;SDS011;61166;54.228;37.632;2023-08-08T09:29:11;71.10;;;53.77;;
72974;SDS011;61166;54.228;37.632;2023-08-08T09:31:38;73.15;;;55.75;;
72974;SDS011;61166;54.228;37.632;2023-08-08T09:34:05;68.05;;;54.78;;
72974;SDS011;61166;54.228;37.632;2023-08-08T09:36:32;69.88;;;53.58;;
72974;SDS011;61166;54.228;37.632;2023-08-08T09:38:59;66.50;;;52.75;;
72974;SDS011;61166;54.228;37.632;2023-08-08T09:41:26;66.50;;;52.60;;
72974;SDS011;61166;54.228;37.632;2023-08-08T09:43:53;67.43;;;53.72;;
72974;SDS011;61166;54.228;37.632;2023-08-08T09:46:20;62.92;;;52.67;;
72974;SDS011;61166;54.228;37.632;2023-08-08T09:48:48;66.28;;;52.17;;
72974;SDS011;61166;54.228;37.632;2023-08-08T09:51:15;62.75;;;51.80;;
72974;SDS011;61166;54.228;37.632;2023-08-08T09:53:42;63.50;;;49.53;;
72974;SDS011;61166;54.228;37.632;2023-08-08T09:56:11;51.05;;;45.15;;
72974;SDS011;61166;54.228;37.632;2023-08-08T09:58:38;50.30;;;43.10;;
72974;SDS011;61166;54.228;37.632;2023-08-08T10:01:05;44.65;;;36.10;;
72974;SDS011;61166;54.228;37.632;2023-08-08T10:03:32;41.75;;;32.70;;
72974;SDS011;61166;54.228;37.632;2023-08-08T10:06:00;39.30;;;29.30;;
72974;SDS011;61166;54.228;37.632;2023-08-08T10:08:27;40.90;;;30.63;;
72974;SDS011;61166;54.228;37.632;2023-08-08T10:10:54;39.75;;;30.80;;
72974;SDS011;61166;54.228;37.632;2023-08-08T10:13:22;45.65;;;33.08;;
72974;SDS011;61166;54.228;37.632;2023-08-08T10:15:49;41.75;;;34.13;;
72974;SDS011;61166;54.228;37.632;2023-08-08T10:18:18;46.07;;;38.03;;
72974;SDS011;61166;54.228;37.632;2023-08-08T10:20:46;41.05;;;35.67;;
72974;SDS011;61166;54.228;37.632;2023-08-08T10:23:17;49.35;;;40.90;;
72974;SDS011;61166;54.228;37.632;2023-08-08T10:25:47;47.50;;;41.40;;
72974;SDS011;61166;54.228;37.632;2023-08-08T10:28:14;54.50;;;43.75;;
72974;SDS011;61166;54.228;37.632;2023-08-08T10:33:25;67.97;;;51.15;;
72974;SDS011;61166;54.228;37.632;2023-08-08T10:41:17;60.58;;;50.90;;
72974;SDS011;61166;54.228;37.632;2023-08-08T10:43:50;64.63;;;51.83;;
72974;SDS011;61166;54.228;37.632;2023-08-08T10:46:53;74.80;;;54.63;;
72974;SDS011;61166;54.228;37.632;2023-08-08T10:49:12;72.90;;;56.58;;
72974;SDS011;61166;54.228;37.632;2023-08-08T10:51:40;68.70;;;55.00;;
72974;SDS011;61166;54.228;37.632;2023-08-08T10:54:07;74.90;;;57.13;;
72974;SDS011;61166;54.228;37.632;2023-08-08T10:56:38;77.53;;;57.73;;
72974;SDS011;61166;54.228;37.632;2023-08-08T10:59:14;76.90;;;56.63;;
72974;SDS011;61166;54.228;37.632;2023-08-08T11:01:49;77.65;;;59.55;;
72974;SDS011;61166;54.228;37.632;2023-08-08T11:04:18;82.38;;;60.72;;
72974;SDS011;61166;54.228;37.632;2023-08-08T11:06:44;85.13;;;60.97;;
72974;SDS011;61166;54.228;37.632;2023-08-08T11:09:12;93.53;;;63.57;;
72974;SDS011;61166;54.228;37.632;2023-08-08T11:11:40;95.38;;;64.93;;
72974;SDS011;61166;54.228;37.632;2023-08-08T11:14:11;98.00;;;66.63;;
72974;SDS011;61166;54.228;37.632;2023-08-08T11:16:42;110.13;;;70.65;;
72974;SDS011;61166;54.228;37.632;2023-08-08T11:19:10;113.13;;;72.53;;
72974;SDS011;61166;54.228;37.632;2023-08-08T11:21:37;123.57;;;75.77;;
72974;SDS011;61166;54.228;37.632;2023-08-08T11:24:04;124.05;;;76.00;;
72974;SDS011;61166;54.228;37.632;2023-08-08T11:26:31;133.15;;;79.28;;
72974;SDS011;61166;54.228;37.632;2023-08-08T11:28:58;128.18;;;76.57;;
72974;SDS011;61166;54.228;37.632;2023-08-08T11:31:25;135.13;;;78.85;;
72974;SDS011;61166;54.228;37.632;2023-08-08T11:33:55;139.77;;;79.93;;
72974;SDS011;61166;54.228;37.632;2023-08-08T11:36:22;145.75;;;83.05;;
72974;SDS011;61166;54.228;37.632;2023-08-08T11:38:50;148.27;;;83.55;;
72974;SDS011;61166;54.228;37.632;2023-08-08T11:41:17;152.55;;;84.20;;
72974;SDS011;61166;54.228;37.632;2023-08-08T11:43:44;157.55;;;86.43;;
72974;SDS011;61166;54.228;37.632;2023-08-08T11:46:14;157.60;;;85.50;;
72974;SDS011;61166;54.228;37.632;2023-08-08T11:48:41;162.85;;;87.30;;
72974;SDS011;61166;54.228;37.632;2023-08-08T11:51:07;166.82;;;89.00;;
72974;SDS011;61166;54.228;37.632;2023-08-08T11:53:34;318.98;;;123.85;;
72974;SDS011;61166;54.228;37.632;2023-08-08T11:56:01;292.08;;;119.97;;
72974;SDS011;61166;54.228;37.632;2023-08-08T11:58:28;279.90;;;115.90;;
72974;SDS011;61166;54.228;37.632;2023-08-08T12:00:56;268.23;;;113.68;;
72974;SDS011;61166;54.228;37.632;2023-08-08T12:03:24;253.75;;;109.53;;
72974;SDS011;61166;54.228;37.632;2023-08-08T12:05:51;236.98;;;105.00;;
72974;SDS011;61166;54.228;37.632;2023-08-08T12:08:19;224.00;;;102.40;;
72974;SDS011;61166;54.228;37.632;2023-08-08T12:10:49;217.07;;;100.90;;
72974;SDS011;61166;54.228;37.632;2023-08-08T12:13:21;226.10;;;103.13;;
72974;SDS011;61166;54.228;37.632;2023-08-08T12:15:48;229.70;;;103.35;;
72974;SDS011;61166;54.228;37.632;2023-08-08T12:18:17;224.40;;;101.63;;
72974;SDS011;61166;54.228;37.632;2023-08-08T12:20:43;232.38;;;104.07;;
72974;SDS011;61166;54.228;37.632;2023-08-08T12:23:10;202.00;;;96.27;;
72974;SDS011;61166;54.228;37.632;2023-08-08T12:25:39;218.57;;;100.93;;
72974;SDS011;61166;54.228;37.632;2023-08-08T12:28:06;221.80;;;101.65;;
72974;SDS011;61166;54.228;37.632;2023-08-08T12:30:32;287.92;;;117.10;;
72974;SDS011;61166;54.228;37.632;2023-08-08T12:32:59;248.88;;;107.35;;
72974;SDS011;61166;54.228;37.632;2023-08-08T12:35:25;247.70;;;107.33;;
72974;SDS011;61166;54.228;37.632;2023-08-08T12:37:52;193.40;;;93.57;;
72974;SDS011;61166;54.228;37.632;2023-08-08T12:40:18;188.77;;;92.57;;
72974;SDS011;61166;54.228;37.632;2023-08-08T12:42:45;179.73;;;90.57;;
72974;SDS011;61166;54.228;37.632;2023-08-08T12:45:12;163.27;;;85.43;;
72974;SDS011;61166;54.228;37.632;2023-08-08T12:47:38;166.80;;;87.07;;
72974;SDS011;61166;54.228;37.632;2023-08-08T12:50:05;234.60;;;104.28;;
72974;SDS011;61166;54.228;37.632;2023-08-08T12:52:32;198.07;;;95.95;;
72974;SDS011;61166;54.228;37.632;2023-08-08T12:54:59;285.30;;;116.78;;
72974;SDS011;61166;54.228;37.632;2023-08-08T12:57:25;161.77;;;86.65;;
72974;SDS011;61166;54.228;37.632;2023-08-08T12:59:52;90.27;;;61.83;;
72974;SDS011;61166;54.228;37.632;2023-08-08T13:02:19;299.85;;;120.00;;
72974;SDS011;61166;54.228;37.632;2023-08-08T13:04:45;308.50;;;123.78;;
72974;SDS011;61166;54.228;37.632;2023-08-08T13:07:12;290.40;;;117.75;;
72974;SDS011;61166;54.228;37.632;2023-08-08T13:09:38;90.32;;;61.78;;
72974;SDS011;61166;54.228;37.632;2023-08-08T13:12:05;97.27;;;64.87;;
72974;SDS011;61166;54.228;37.632;2023-08-08T13:14:32;207.45;;;96.57;;
72974;SDS011;61166;54.228;37.632;2023-08-08T13:16:58;338.80;;;129.45;;
72974;SDS011;61166;54.228;37.632;2023-08-08T13:19:25;253.35;;;109.18;;
72974;SDS011;61166;54.228;37.632;2023-08-08T13:21:52;259.27;;;112.22;;
72974;SDS011;61166;54.228;37.632;2023-08-08T13:24:18;228.60;;;104.07;;
72974;SDS011;61166;54.228;37.632;2023-08-08T13:26:45;248.18;;;107.93;;
72974;SDS011;61166;54.228;37.632;2023-08-08T13:29:12;228.50;;;104.45;;
72974;SDS011;61166;54.228;37.632;2023-08-08T13:31:38;273.25;;;114.50;;
72974;SDS011;61166;54.228;37.632;2023-08-08T13:34:05;298.38;;;120.03;;
72974;SDS011;61166;54.228;37.632;2023-08-08T13:36:31;275.20;;;113.53;;
72974;SDS011;61166;54.228;37.632;2023-08-08T13:38:58;197.85;;;95.90;;
72974;SDS011;61166;54.228;37.632;2023-08-08T13:41:24;262.25;;;111.65;;
72974;SDS011;61166;54.228;37.632;2023-08-08T13:43:51;252.40;;;109.28;;
72974;SDS011;61166;54.228;37.632;2023-08-08T13:46:17;247.85;;;108.43;;
72974;SDS011;61166;54.228;37.632;2023-08-08T13:48:44;242.43;;;106.93;;
72974;SDS011;61166;54.228;37.632;2023-08-08T13:51:10;242.23;;;106.70;;
72974;SDS011;61166;54.228;37.632;2023-08-08T13:53:37;242.07;;;107.25;;
72974;SDS011;61166;54.228;37.632;2023-08-08T13:56:04;239.55;;;105.47;;
72974;SDS011;61166;54.228;37.632;2023-08-08T13:58:30;234.60;;;104.50;;
72974;SDS011;61166;54.228;37.632;2023-08-08T14:00:56;223.10;;;101.57;;